createdAt,value
2022-10-23T00:00:55.564Z,8.48
2022-10-23T00:04:01.071Z,8.43
2022-10-23T00:07:07.912Z,8.57
2022-10-23T00:10:10.295Z,8.54
2022-10-23T00:13:17.272Z,8.56
2022-10-23T00:16:19.276Z,8.45
2022-10-23T00:19:31.617Z,8.46
2022-10-23T00:22:36.117Z,8.41
2022-10-23T00:25:39.038Z,8.39
2022-10-23T00:28:41.769Z,8.40
2022-10-23T00:31:43.851Z,8.39
2022-10-23T00:34:46.061Z,8.33
2022-10-23T00:37:51.247Z,8.30
2022-10-23T00:41:00.089Z,8.35
2022-10-23T00:44:02.262Z,8.33
2022-10-23T00:47:04.468Z,8.35
2022-10-23T00:50:06.924Z,8.32
2022-10-23T00:53:10.306Z,8.40
2022-10-23T00:56:13.322Z,8.32
2022-10-23T00:59:20.089Z,8.40
2022-10-23T01:02:29.299Z,8.33
2022-10-23T01:05:37.093Z,8.32
2022-10-23T01:08:59.443Z,8.24
2022-10-23T01:12:31.867Z,8.17
2022-10-23T01:16:00.860Z,8.10
2022-10-23T01:19:09.675Z,8.08
2022-10-23T01:22:20.297Z,8.05
2022-10-23T01:25:45.025Z,8.02
2022-10-23T01:28:53.294Z,8.01
2022-10-23T01:32:04.330Z,7.99
2022-10-23T01:35:14.471Z,7.95
2022-10-23T01:38:36.122Z,8.01
2022-10-23T01:41:55.659Z,8.00
2022-10-23T01:45:07.166Z,7.97
2022-10-23T01:48:23.351Z,8.02
2022-10-23T01:51:39.191Z,8.03
2022-10-23T01:54:44.714Z,8.05
2022-10-23T01:58:01.344Z,8.13
2022-10-23T02:01:09.683Z,8.09
2022-10-23T02:04:14.143Z,8.05
2022-10-23T02:07:24.327Z,8.04
2022-10-23T02:10:42.083Z,8.00
2022-10-23T02:14:08.083Z,7.95
2022-10-23T02:17:30.106Z,7.93
2022-10-23T02:20:38.356Z,7.93
2022-10-23T02:24:07.277Z,7.91
2022-10-23T02:27:25.599Z,7.83
2022-10-23T02:30:36.906Z,7.81
2022-10-23T02:33:41.373Z,7.83
2022-10-23T02:36:47.166Z,7.84
2022-10-23T02:39:57.898Z,7.80
2022-10-23T02:43:07.133Z,7.72
2022-10-23T02:46:19.593Z,7.73
2022-10-23T02:49:42.861Z,7.79
2022-10-23T02:53:05.162Z,7.79
2022-10-23T02:56:28.518Z,7.73
2022-10-23T03:00:05.368Z,7.76
2022-10-23T03:03:21.291Z,7.72
2022-10-23T03:06:31.531Z,7.71
2022-10-23T03:09:40.430Z,7.67
2022-10-23T03:12:50.511Z,7.55
2022-10-23T03:15:52.673Z,7.49
2022-10-23T03:18:55.325Z,7.53
2022-10-23T03:22:12.478Z,7.51
2022-10-23T03:25:14.646Z,7.55
2022-10-23T03:28:16.917Z,7.57
2022-10-23T03:31:20.597Z,7.59
2022-10-23T03:34:29.616Z,7.48
2022-10-23T03:37:33.122Z,7.37
2022-10-23T03:40:35.426Z,7.40
2022-10-23T03:43:37.561Z,7.45
2022-10-23T03:46:42.326Z,7.39
2022-10-23T03:49:46.190Z,7.31
2022-10-23T03:52:48.186Z,7.31
2022-10-23T03:55:51.016Z,7.27
2022-10-23T03:58:55.924Z,7.23
2022-10-23T04:01:59.676Z,7.23
2022-10-23T04:05:03.482Z,7.27
2022-10-23T04:08:05.617Z,7.39
2022-10-23T04:11:07.574Z,7.31
2022-10-23T04:14:26.617Z,7.31
2022-10-23T04:17:33.592Z,7.30
2022-10-23T04:20:37.141Z,7.26
2022-10-23T04:23:57.349Z,7.32
2022-10-23T04:27:04.857Z,7.36
2022-10-23T04:30:07.389Z,7.40
2022-10-23T04:33:09.667Z,7.41
2022-10-23T04:36:26.800Z,7.41
2022-10-23T04:39:30.331Z,7.50
2022-10-23T04:42:32.346Z,7.49
2022-10-23T04:45:38.221Z,7.38
2022-10-23T04:48:40.593Z,7.36
2022-10-23T04:51:46.641Z,7.35
2022-10-23T04:54:57.211Z,7.36
2022-10-23T04:58:08.591Z,7.36
2022-10-23T05:01:14.116Z,7.26
2022-10-23T05:04:20.258Z,7.24
2022-10-23T05:10:30.838Z,7.22
2022-10-23T05:13:33.048Z,7.15
2022-10-23T05:16:43.111Z,7.21
2022-10-23T05:19:51.522Z,7.23
2022-10-23T05:23:08.568Z,7.19
2022-10-23T05:26:10.644Z,7.15
2022-10-23T05:29:15.048Z,7.22
2022-10-23T05:32:18.882Z,7.18
2022-10-23T05:35:22.623Z,7.12
2022-10-23T05:38:37.928Z,7.08
2022-10-23T05:41:40.023Z,7.12
2022-10-23T05:44:50.666Z,7.29
2022-10-23T05:47:54.998Z,7.25
2022-10-23T05:51:23.605Z,7.21
2022-10-23T05:54:35.068Z,7.26
2022-10-23T05:57:52.569Z,7.29
2022-10-23T06:01:00.945Z,7.39
2022-10-23T06:04:05.369Z,7.47
2022-10-23T06:07:07.225Z,7.59
2022-10-23T06:10:09.444Z,7.76
2022-10-23T06:13:15.840Z,7.91
2022-10-23T06:16:22.140Z,8.00
2022-10-23T06:19:37.225Z,8.04
2022-10-23T06:22:46.605Z,8.09
2022-10-23T06:25:53.837Z,8.18
2022-10-23T06:29:05.997Z,8.29
2022-10-23T06:32:19.758Z,8.41
2022-10-23T06:35:27.317Z,8.56
2022-10-23T06:38:29.318Z,8.71
2022-10-23T06:41:52.230Z,8.85
2022-10-23T06:44:55.938Z,8.93
2022-10-23T06:48:03.355Z,9.08
2022-10-23T06:51:08.783Z,9.26
2022-10-23T06:54:12.934Z,9.30
2022-10-23T06:57:15.905Z,9.45
2022-10-23T07:00:21.811Z,9.64
2022-10-23T07:03:24.509Z,9.73
2022-10-23T07:06:27.817Z,9.85
2022-10-23T07:09:31.721Z,10.05
2022-10-23T07:12:34.111Z,10.19
2022-10-23T07:15:36.587Z,10.28
2022-10-23T07:18:40.043Z,10.49
2022-10-23T07:21:46.548Z,10.73
2022-10-23T07:24:49.064Z,10.93
2022-10-23T07:28:00.813Z,11.10
2022-10-23T07:31:17.620Z,11.22
2022-10-23T07:34:22.488Z,11.31
2022-10-23T07:37:25.045Z,11.39
2022-10-23T07:40:27.420Z,11.65
2022-10-23T07:43:29.830Z,11.79
2022-10-23T07:46:32.124Z,11.76
2022-10-23T07:49:34.113Z,11.94
2022-10-23T07:52:51.093Z,11.92
2022-10-23T07:55:58.334Z,11.84
2022-10-23T07:59:00.930Z,11.92
2022-10-23T08:02:03.479Z,11.96
2022-10-23T08:05:07.235Z,12.02
2022-10-23T08:08:13.241Z,11.91
2022-10-23T08:11:15.827Z,12.01
2022-10-23T08:14:18.584Z,12.02
2022-10-23T08:17:36.403Z,12.09
2022-10-23T08:20:48.645Z,12.20
2022-10-23T08:23:53.491Z,11.98
2022-10-23T08:27:02.337Z,12.17
2022-10-23T08:30:06.733Z,12.36
2022-10-23T08:33:10.076Z,12.59
2022-10-23T08:36:23.079Z,12.65
2022-10-23T08:39:25.414Z,12.73
2022-10-23T08:42:27.835Z,12.84
2022-10-23T08:45:45.769Z,12.68
2022-10-23T08:48:57.047Z,12.82
2022-10-23T08:52:32.106Z,12.95
2022-10-23T08:55:41.925Z,13.00
2022-10-23T09:01:59.297Z,12.97
2022-10-23T09:05:11.871Z,12.83
2022-10-23T09:08:26.096Z,12.73
2022-10-23T09:11:30.917Z,12.74
2022-10-23T09:14:36.059Z,12.53
2022-10-23T09:17:41.906Z,12.78
2022-10-23T09:20:45.933Z,12.98
2022-10-23T09:23:48.105Z,13.16
2022-10-23T09:26:58.292Z,13.21
2022-10-23T09:30:03.074Z,13.28
2022-10-23T09:33:17.275Z,13.39
2022-10-23T09:36:24.525Z,13.53
2022-10-23T09:39:37.784Z,13.66
2022-10-23T09:42:50.859Z,13.71
2022-10-23T09:46:01.164Z,13.75
2022-10-23T09:49:05.810Z,13.91
2022-10-23T09:52:08.390Z,14.08
2022-10-23T09:55:37.183Z,14.21
2022-10-23T09:58:44.046Z,14.30
2022-10-23T10:01:48.437Z,14.49
2022-10-23T10:04:50.861Z,14.46
2022-10-23T10:07:58.500Z,14.47
2022-10-23T10:11:01.453Z,14.46
2022-10-23T10:14:23.619Z,14.48
2022-10-23T10:17:50.356Z,14.49
2022-10-23T10:21:04.678Z,14.61
2022-10-23T10:24:26.479Z,14.48
2022-10-23T10:27:40.082Z,14.49
2022-10-23T10:31:00.918Z,14.53
2022-10-23T10:34:25.298Z,14.62
2022-10-23T10:37:27.305Z,14.68
2022-10-23T10:40:37.768Z,14.83
2022-10-23T10:43:43.007Z,14.73
2022-10-23T10:46:51.977Z,14.84
2022-10-23T10:50:02.906Z,14.79
2022-10-23T10:53:16.892Z,14.83
2022-10-23T10:56:20.804Z,14.96
2022-10-23T10:59:29.044Z,15.08
2022-10-23T11:02:44.307Z,15.11
2022-10-23T11:05:50.961Z,15.12
2022-10-23T11:09:09.135Z,15.14
2022-10-23T11:12:22.132Z,15.31
2022-10-23T11:15:38.910Z,15.26
2022-10-23T11:18:49.334Z,15.19
2022-10-23T11:21:59.238Z,15.44
2022-10-23T11:25:12.624Z,15.43
2022-10-23T11:28:14.937Z,15.61
2022-10-23T11:31:19.518Z,15.71
2022-10-23T11:34:36.079Z,15.75
2022-10-23T11:37:38.667Z,15.66
2022-10-23T11:43:53.526Z,15.77
2022-10-23T11:47:06.638Z,15.81
2022-10-23T11:50:08.921Z,15.90
2022-10-23T11:53:46.187Z,15.91
2022-10-23T11:57:10.586Z,15.91
2022-10-23T12:00:31.909Z,15.76
2022-10-23T12:03:51.536Z,15.81
2022-10-23T12:07:14.447Z,15.77
2022-10-23T12:10:23.900Z,15.63
2022-10-23T12:13:44.693Z,15.36
2022-10-23T12:16:46.543Z,14.99
2022-10-23T12:20:20.033Z,15.01
2022-10-23T12:23:44.411Z,14.96
2022-10-23T12:27:08.585Z,14.93
2022-10-23T12:30:33.848Z,14.94
2022-10-23T12:34:09.174Z,14.92
2022-10-23T12:37:21.385Z,15.01
2022-10-23T12:40:36.043Z,15.10
2022-10-23T12:43:43.066Z,15.01
2022-10-23T12:46:52.934Z,14.98
2022-10-23T12:49:55.812Z,14.92
2022-10-23T12:53:24.494Z,14.92
2022-10-23T12:56:35.914Z,15.02
2022-10-23T12:59:42.856Z,15.28
2022-10-23T13:02:45.026Z,15.36
2022-10-23T13:05:48.154Z,15.27
2022-10-23T13:08:50.663Z,15.17
2022-10-23T13:11:52.924Z,15.13
2022-10-23T13:15:12.217Z,15.37
2022-10-23T13:18:15.567Z,15.34
2022-10-23T13:21:20.394Z,15.28
2022-10-23T13:24:25.570Z,15.23
2022-10-23T13:27:30.975Z,15.09
2022-10-23T13:30:35.004Z,15.10
2022-10-23T13:33:45.143Z,15.01
2022-10-23T13:36:58.354Z,15.03
2022-10-23T13:40:08.484Z,15.14
2022-10-23T13:43:27.190Z,15.13
2022-10-23T13:46:49.281Z,15.20
2022-10-23T13:49:52.527Z,15.26
2022-10-23T13:52:55.299Z,15.35
2022-10-23T13:56:05.301Z,15.28
2022-10-23T13:59:13.484Z,15.27
2022-10-23T14:02:25.928Z,15.17
2022-10-23T14:05:30.862Z,15.15
2022-10-23T14:08:34.262Z,15.16
2022-10-23T14:11:36.531Z,15.16
2022-10-23T14:14:38.867Z,15.15
2022-10-23T14:17:42.047Z,15.07
2022-10-23T14:20:44.569Z,15.08
2022-10-23T14:24:02.816Z,15.05
2022-10-23T14:27:08.891Z,15.02
2022-10-23T14:30:11.702Z,14.99
2022-10-23T14:33:15.312Z,14.98
2022-10-23T14:39:19.322Z,14.90
2022-10-23T14:42:23.383Z,14.86
2022-10-23T14:45:25.505Z,14.81
2022-10-23T14:48:27.674Z,14.78
2022-10-23T14:51:45.941Z,14.78
2022-10-23T14:54:53.113Z,14.75
2022-10-23T14:57:56.986Z,14.71
2022-10-23T15:01:00.331Z,14.72
2022-10-23T15:04:11.906Z,14.72
2022-10-23T15:07:14.076Z,14.70
2022-10-23T15:13:20.243Z,14.68
2022-10-23T15:16:27.306Z,14.68
2022-10-23T15:19:32.954Z,14.69
2022-10-23T15:22:40.730Z,14.66
2022-10-23T15:25:43.690Z,14.65
2022-10-23T15:28:45.825Z,14.63
2022-10-23T15:31:50.799Z,14.61
2022-10-23T15:34:54.177Z,14.60
2022-10-23T15:38:06.870Z,14.59
2022-10-23T15:41:17.981Z,14.53
2022-10-23T15:44:20.996Z,14.52
2022-10-23T15:47:24.896Z,14.48
2022-10-23T15:50:35.249Z,14.48
2022-10-23T15:53:40.361Z,14.46
2022-10-23T15:56:46.476Z,14.44
2022-10-23T15:59:49.202Z,14.44
2022-10-23T16:02:51.343Z,14.45
2022-10-23T16:05:58.948Z,14.44
2022-10-23T16:09:07.109Z,14.43
2022-10-23T16:12:09.390Z,14.47
2022-10-23T16:15:11.317Z,14.44
2022-10-23T16:18:16.091Z,14.45
2022-10-23T16:21:23.401Z,14.45
2022-10-23T16:24:29.166Z,14.45
2022-10-23T16:27:31.544Z,14.44
2022-10-23T16:30:33.665Z,14.46
2022-10-23T16:33:35.791Z,14.45
2022-10-23T16:36:40.232Z,14.47
2022-10-23T16:39:42.285Z,14.48
2022-10-23T16:42:44.388Z,14.41
2022-10-23T16:45:47.139Z,14.40
2022-10-23T16:48:50.441Z,14.36
2022-10-23T16:51:53.735Z,14.38
2022-10-23T16:54:59.327Z,14.43
2022-10-23T16:58:09.964Z,14.44
2022-10-23T17:01:35.010Z,14.48
2022-10-23T17:04:39.047Z,14.51
2022-10-23T17:07:42.897Z,14.57
2022-10-23T17:10:48.203Z,14.63
2022-10-23T17:13:55.724Z,14.68
2022-10-23T17:17:02.099Z,14.67
2022-10-23T17:20:04.245Z,14.68
2022-10-23T17:23:06.392Z,14.75
2022-10-23T17:26:09.725Z,14.74
2022-10-23T17:29:18.583Z,14.74
2022-10-23T17:35:23.812Z,14.75
2022-10-23T17:38:26.335Z,14.71
2022-10-23T17:41:37.558Z,14.75
2022-10-23T17:44:47.578Z,14.72
2022-10-23T17:47:50.213Z,14.68
2022-10-23T17:51:11.933Z,14.64
2022-10-23T17:54:15.775Z,14.83
2022-10-23T17:57:20.882Z,14.98
2022-10-23T18:00:24.291Z,14.95
2022-10-23T18:03:28.525Z,14.87
2022-10-23T18:06:32.308Z,14.89
2022-10-23T18:09:34.746Z,15.01
2022-10-23T18:12:44.392Z,14.91
2022-10-23T18:15:47.237Z,14.90
2022-10-23T18:18:55.203Z,14.92
2022-10-23T18:21:59.525Z,14.81
2022-10-23T18:25:02.386Z,14.75
2022-10-23T18:28:04.764Z,14.68
2022-10-23T18:31:12.027Z,14.67
2022-10-23T18:34:16.021Z,14.63
2022-10-23T18:37:22.032Z,14.58
2022-10-23T18:40:25.717Z,14.56
2022-10-23T18:43:43.168Z,14.53
2022-10-23T18:46:48.938Z,14.54
2022-10-23T18:49:51.273Z,14.50
2022-10-23T18:52:57.633Z,14.50
2022-10-23T18:56:01.145Z,14.48
2022-10-23T18:59:05.104Z,14.47
2022-10-23T19:02:07.596Z,14.45
2022-10-23T19:05:09.999Z,14.45
2022-10-23T19:08:12.797Z,14.42
2022-10-23T19:11:17.596Z,14.46
2022-10-23T19:14:19.901Z,14.42
2022-10-23T19:17:35.115Z,14.39
2022-10-23T19:20:38.067Z,14.39
2022-10-23T19:23:42.555Z,14.45
2022-10-23T19:26:45.686Z,14.48
2022-10-23T19:29:49.381Z,14.48
2022-10-23T19:32:51.545Z,14.50
2022-10-23T19:35:54.393Z,14.46
2022-10-23T19:39:05.303Z,14.45
2022-10-23T19:42:10.247Z,14.43
2022-10-23T19:45:13.752Z,14.41
2022-10-23T19:48:15.860Z,14.41
2022-10-23T19:51:18.101Z,14.44
2022-10-23T19:54:22.833Z,14.47
2022-10-23T19:57:26.251Z,14.42
2022-10-23T20:00:28.424Z,14.40
2022-10-23T20:03:30.858Z,14.38
2022-10-23T20:06:36.277Z,14.38
2022-10-23T20:09:39.036Z,14.35
2022-10-23T20:12:56.459Z,14.35
2022-10-23T20:16:06.448Z,14.30
2022-10-23T20:19:18.810Z,14.32
2022-10-23T20:22:21.123Z,14.30
2022-10-23T20:25:23.714Z,14.31
2022-10-23T20:28:25.685Z,14.29
2022-10-23T20:31:28.150Z,14.27
2022-10-23T20:34:33.526Z,14.21
2022-10-23T20:37:37.326Z,14.15
2022-10-23T20:40:39.500Z,14.10
2022-10-23T20:43:43.652Z,14.05
2022-10-23T20:46:46.192Z,14.01
2022-10-23T20:49:58.537Z,14.00
2022-10-23T20:53:00.754Z,14.00
2022-10-23T20:56:12.389Z,13.96
2022-10-23T20:59:17.682Z,13.96
2022-10-23T21:02:20.837Z,13.95
2022-10-23T21:05:25.991Z,13.95
2022-10-23T21:08:36.195Z,13.96
2022-10-23T21:11:39.063Z,13.94
2022-10-23T21:14:41.194Z,13.93
2022-10-23T21:17:50.826Z,13.91
2022-10-23T21:21:15.103Z,13.87
2022-10-23T21:24:20.632Z,13.87
2022-10-23T21:27:28.763Z,13.85
2022-10-23T21:30:38.847Z,13.86
2022-10-23T21:33:42.956Z,13.85
2022-10-23T21:37:11.429Z,13.90
2022-10-23T21:40:13.004Z,13.85
2022-10-23T21:43:24.832Z,13.81
2022-10-23T21:46:36.324Z,13.84
2022-10-23T21:49:41.850Z,13.87
2022-10-23T21:52:50.226Z,13.90
2022-10-23T21:55:53.723Z,13.91
2022-10-23T21:58:56.079Z,13.86
2022-10-23T22:02:01.769Z,13.88
2022-10-23T22:05:09.598Z,14.04
2022-10-23T22:08:12.090Z,14.04
2022-10-23T22:11:27.152Z,14.08
2022-10-23T22:14:29.612Z,14.01
2022-10-23T22:17:32.676Z,13.99
2022-10-23T22:20:34.732Z,13.94
2022-10-23T22:23:37.475Z,13.91
2022-10-23T22:26:48.709Z,13.89
2022-10-23T22:29:51.308Z,13.89
2022-10-23T22:32:53.659Z,13.89
2022-10-23T22:36:05.873Z,13.91
2022-10-23T22:39:08.181Z,13.92
2022-10-23T22:42:11.767Z,13.98
2022-10-23T22:45:24.753Z,14.05
2022-10-23T22:48:28.172Z,14.08
2022-10-23T22:51:31.008Z,14.06
2022-10-23T22:54:42.399Z,14.05
2022-10-23T22:57:50.847Z,14.02
2022-10-23T23:00:54.119Z,13.97
2022-10-23T23:04:04.295Z,13.89
2022-10-23T23:07:21.256Z,13.81
2022-10-23T23:10:24.209Z,13.75
2022-10-23T23:13:33.820Z,13.69
2022-10-23T23:16:36.195Z,13.68
2022-10-23T23:19:40.765Z,13.69
2022-10-23T23:22:43.533Z,13.66
2022-10-23T23:26:06.335Z,13.69
2022-10-23T23:29:20.622Z,13.73
2022-10-23T23:32:26.986Z,13.74
2022-10-23T23:35:39.774Z,13.77
2022-10-23T23:38:44.489Z,13.77
2022-10-23T23:41:57.196Z,13.76
2022-10-23T23:45:13.588Z,13.77
2022-10-23T23:48:21.502Z,13.81
2022-10-23T23:51:26.792Z,13.87
2022-10-23T23:54:29.609Z,13.83
2022-10-23T23:57:31.688Z,13.82
